createdAt,value
2023-03-27T00:00:35.051Z,9.747410
2023-03-27T00:01:35.048Z,9.747411
2023-03-27T00:02:35.158Z,9.747483
2023-03-27T00:03:35.080Z,9.747387
2023-03-27T00:04:35.051Z,9.747485
2023-03-27T00:05:35.022Z,9.747460
2023-03-27T00:06:35.026Z,9.747543
2023-03-27T00:07:35.016Z,9.747414
2023-03-27T00:08:35.003Z,9.747342
2023-03-27T00:09:35.023Z,9.747477
2023-03-27T00:10:34.981Z,9.747472
2023-03-27T00:11:34.976Z,9.747503
2023-03-27T00:12:34.987Z,9.747529
2023-03-27T00:13:34.958Z,9.747461
2023-03-27T00:14:34.979Z,9.747570
2023-03-27T00:15:34.944Z,9.747526
2023-03-27T00:16:34.940Z,9.747496
2023-03-27T00:17:34.988Z,9.747402
2023-03-27T00:18:34.950Z,9.747430
2023-03-27T00:19:34.938Z,9.747479
2023-03-27T00:20:34.905Z,9.747409
2023-03-27T00:21:34.912Z,9.747469
2023-03-27T00:22:34.892Z,9.747466
2023-03-27T00:23:34.901Z,9.747480
2023-03-27T00:24:34.911Z,9.747390
2023-03-27T00:25:34.880Z,9.747333
2023-03-27T00:26:34.866Z,9.747410
2023-03-27T00:27:34.861Z,9.747457
2023-03-27T00:28:34.843Z,9.747377
2023-03-27T00:29:35.573Z,9.747420
2023-03-27T00:30:34.885Z,9.747423
2023-03-27T00:31:34.824Z,9.747478
2023-03-27T00:32:34.926Z,9.747489
2023-03-27T00:33:34.809Z,9.747479
2023-03-27T00:34:34.818Z,9.747504
2023-03-27T00:35:34.850Z,9.747568
2023-03-27T00:36:34.786Z,9.747491
2023-03-27T00:37:34.783Z,9.747568
2023-03-27T00:38:34.789Z,9.747530
2023-03-27T00:39:34.795Z,9.747449
2023-03-27T00:40:34.763Z,9.747487
2023-03-27T00:41:34.747Z,9.747469
2023-03-27T00:42:34.734Z,9.747450
2023-03-27T00:43:34.717Z,9.747466
2023-03-27T00:44:34.765Z,9.747437
2023-03-27T00:45:34.711Z,9.747497
2023-03-27T00:46:34.783Z,9.747366
2023-03-27T00:47:34.720Z,9.747527
2023-03-27T00:48:34.749Z,9.747434
2023-03-27T00:49:34.689Z,9.747491
2023-03-27T00:50:34.721Z,9.747480
2023-03-27T00:51:34.665Z,9.747474
2023-03-27T00:52:34.653Z,9.747457
2023-03-27T00:53:34.675Z,9.747454
2023-03-27T00:54:34.671Z,9.747390
2023-03-27T00:55:34.645Z,9.747387
2023-03-27T00:56:34.642Z,9.747482
2023-03-27T00:57:34.619Z,9.747470
2023-03-27T00:58:34.613Z,9.747480
2023-03-27T00:59:34.622Z,9.747436
2023-03-27T01:00:34.641Z,9.747461
2023-03-27T01:01:34.600Z,9.747347
2023-03-27T01:02:34.692Z,9.747450
2023-03-27T01:03:34.680Z,9.747480
2023-03-27T01:04:34.578Z,9.747495
2023-03-27T01:05:34.605Z,9.747454
2023-03-27T01:06:34.553Z,9.747354
2023-03-27T01:07:34.548Z,9.747436
2023-03-27T01:08:34.532Z,9.747416
2023-03-27T01:09:34.597Z,9.747471
2023-03-27T01:10:34.545Z,9.747491
2023-03-27T01:11:34.521Z,9.747421
2023-03-27T01:12:34.519Z,9.747417
2023-03-27T01:13:34.505Z,9.747509
2023-03-27T01:14:34.497Z,9.747446
2023-03-27T01:15:34.515Z,9.747469
2023-03-27T01:16:34.490Z,9.747442
2023-03-27T01:17:34.518Z,9.747460
2023-03-27T01:18:34.462Z,9.747302
2023-03-27T01:19:34.455Z,9.747401
2023-03-27T01:20:34.485Z,9.747508
2023-03-27T01:21:34.443Z,9.747421
2023-03-27T01:22:34.434Z,9.747436
2023-03-27T01:23:58.737Z,9.747508
2023-03-27T01:24:35.411Z,9.747504
2023-03-27T01:25:34.445Z,9.747431
2023-03-27T01:26:35.421Z,9.747365
2023-03-27T01:27:34.399Z,9.747291
2023-03-27T01:28:34.398Z,9.747344
2023-03-27T01:29:34.378Z,9.747349
2023-03-27T01:30:34.495Z,9.747346
2023-03-27T01:31:34.409Z,9.747352
2023-03-27T01:32:34.404Z,9.747362
2023-03-27T01:33:34.356Z,9.747401
2023-03-27T01:34:34.389Z,9.747496
2023-03-27T01:35:34.385Z,9.747450
2023-03-27T01:36:34.353Z,9.747413
2023-03-27T01:37:34.332Z,9.747532
2023-03-27T01:38:34.324Z,9.747459
2023-03-27T01:39:34.308Z,9.747404
2023-03-27T01:40:34.333Z,9.747506
2023-03-27T01:41:34.298Z,9.747431
2023-03-27T01:42:34.300Z,9.747501
2023-03-27T01:43:34.289Z,9.747342
2023-03-27T01:44:43.345Z,9.747335
2023-03-27T01:45:35.299Z,9.747475
2023-03-27T01:46:34.374Z,9.747348
2023-03-27T01:47:34.320Z,9.747341
2023-03-27T01:48:34.252Z,9.747400
2023-03-27T01:49:34.251Z,9.747396
2023-03-27T01:50:34.273Z,9.747466
2023-03-27T01:51:34.237Z,9.747452
2023-03-27T01:52:34.228Z,9.747525
2023-03-27T01:53:34.219Z,9.747415
2023-03-27T01:54:34.224Z,9.747428
2023-03-27T01:55:34.291Z,9.747396
2023-03-27T01:56:34.230Z,9.747458
2023-03-27T01:57:34.246Z,9.747453
2023-03-27T01:58:34.170Z,9.747558
2023-03-27T01:59:34.169Z,9.747500
2023-03-27T02:00:51.432Z,9.747437
2023-03-27T02:01:35.175Z,9.747417
2023-03-27T02:02:34.200Z,9.747457
2023-03-27T02:03:34.144Z,9.747503
2023-03-27T02:04:34.232Z,9.747596
2023-03-27T02:05:34.146Z,9.747459
2023-03-27T02:06:34.119Z,9.747518
2023-03-27T02:07:34.128Z,9.747480
2023-03-27T02:08:34.158Z,9.747466
2023-03-27T02:09:34.101Z,9.747580
2023-03-27T02:10:34.112Z,9.747483
2023-03-27T02:11:34.112Z,9.747454
2023-03-27T02:12:34.106Z,9.747587
2023-03-27T02:13:34.073Z,9.747441
2023-03-27T02:14:34.063Z,9.747541
2023-03-27T02:15:34.101Z,9.747475
2023-03-27T02:16:34.163Z,9.747587
2023-03-27T02:17:34.126Z,9.747491
2023-03-27T02:18:34.028Z,9.747397
2023-03-27T02:19:34.037Z,9.747485
2023-03-27T02:20:34.045Z,9.747563
2023-03-27T02:21:34.013Z,9.747429
2023-03-27T02:22:38.231Z,9.747485
2023-03-27T02:23:34.989Z,9.747545
2023-03-27T02:24:33.988Z,9.747511
2023-03-27T02:25:34.027Z,9.747501
2023-03-27T02:26:34.961Z,9.747334
2023-03-27T02:27:33.979Z,9.747405
2023-03-27T02:28:33.955Z,9.747447
2023-03-27T02:29:33.949Z,9.747425
2023-03-27T02:30:33.961Z,9.747475
2023-03-27T02:31:35.054Z,9.747323
2023-03-27T02:32:34.997Z,9.747464
2023-03-27T02:33:33.943Z,9.747523
2023-03-27T02:34:33.947Z,9.747459
2023-03-27T02:35:33.945Z,9.747390
2023-03-27T02:36:33.900Z,9.747415
2023-03-27T02:37:33.889Z,9.747410
2023-03-27T02:38:33.881Z,9.747380
2023-03-27T02:39:33.872Z,9.747472
2023-03-27T02:40:40.065Z,9.747477
2023-03-27T02:41:34.861Z,9.747391
2023-03-27T02:42:33.853Z,9.747382
2023-03-27T02:43:33.840Z,9.747419
2023-03-27T02:44:33.840Z,9.747347
2023-03-27T02:45:33.871Z,9.747371
2023-03-27T02:46:33.887Z,9.747417
2023-03-27T02:47:33.832Z,9.747456
2023-03-27T02:48:33.838Z,9.747384
2023-03-27T02:49:33.824Z,9.747448
2023-03-27T02:50:33.810Z,9.747413
2023-03-27T02:51:33.817Z,9.747385
2023-03-27T02:52:33.786Z,9.747241
2023-03-27T02:53:33.763Z,9.747374
2023-03-27T02:54:33.780Z,9.747366
2023-03-27T02:55:33.760Z,9.747427
2023-03-27T02:56:33.833Z,9.747384
2023-03-27T02:57:33.737Z,9.747363
2023-03-27T02:58:33.748Z,9.747398
2023-03-27T02:59:33.727Z,9.747366
2023-03-27T03:00:33.724Z,9.747353
2023-03-27T03:01:33.780Z,9.747472
2023-03-27T03:02:33.879Z,9.747426
2023-03-27T03:03:33.812Z,9.747400
2023-03-27T03:04:33.685Z,9.747412
2023-03-27T03:05:33.680Z,9.747415
2023-03-27T03:06:33.711Z,9.747305
2023-03-27T03:07:33.677Z,9.747264
2023-03-27T03:08:33.656Z,9.747409
2023-03-27T03:09:33.648Z,9.747359
2023-03-27T03:10:34.643Z,9.747323
2023-03-27T03:11:33.660Z,9.747336
2023-03-27T03:12:33.625Z,9.747323
2023-03-27T03:13:33.631Z,9.747310
2023-03-27T03:14:33.654Z,9.747326
2023-03-27T03:15:33.680Z,9.747245
2023-03-27T03:16:33.672Z,9.747342
2023-03-27T03:17:33.646Z,9.747337
2023-03-27T03:18:33.582Z,9.747248
2023-03-27T03:19:33.586Z,9.747242
2023-03-27T03:20:33.581Z,9.747233
2023-03-27T03:21:33.573Z,9.747354
2023-03-27T03:22:34.558Z,9.747416
2023-03-27T03:23:33.602Z,9.747396
2023-03-27T03:24:33.545Z,9.747415
2023-03-27T03:25:33.538Z,9.747448
2023-03-27T03:26:33.544Z,9.747540
2023-03-27T03:27:33.523Z,9.747484
2023-03-27T03:28:33.511Z,9.747384
2023-03-27T03:29:33.506Z,9.747341
2023-03-27T03:30:33.523Z,9.747466
2023-03-27T03:31:33.518Z,9.747466
2023-03-27T03:32:33.503Z,9.747350
2023-03-27T03:33:33.471Z,9.747336
2023-03-27T03:34:33.460Z,9.747396
2023-03-27T03:35:33.514Z,9.747218
2023-03-27T03:36:33.477Z,9.747304
2023-03-27T03:37:33.440Z,9.747389
2023-03-27T03:38:37.829Z,9.747456
2023-03-27T03:39:33.422Z,9.747274
2023-03-27T03:40:33.420Z,9.747328
2023-03-27T03:41:33.441Z,9.747404
2023-03-27T03:42:33.426Z,9.747340
2023-03-27T03:43:33.400Z,9.747384
2023-03-27T03:44:33.393Z,9.747318
2023-03-27T03:45:33.376Z,9.747227
2023-03-27T03:46:33.418Z,9.747217
2023-03-27T03:47:33.408Z,9.747152
2023-03-27T03:48:33.359Z,9.747155
2023-03-27T03:49:33.361Z,9.747298
2023-03-27T03:50:33.338Z,9.747270
2023-03-27T03:51:33.325Z,9.747272
2023-03-27T03:52:33.350Z,9.747448
2023-03-27T03:53:33.328Z,9.747428
2023-03-27T03:54:33.319Z,9.747434
2023-03-27T03:55:33.295Z,9.747394
2023-03-27T03:56:33.329Z,9.747422
2023-03-27T03:57:33.341Z,9.747409
2023-03-27T03:58:34.961Z,9.747467
2023-03-27T03:59:33.273Z,9.747497
2023-03-27T04:00:33.267Z,9.747517
2023-03-27T04:01:33.303Z,9.747642
2023-03-27T04:02:33.345Z,9.747546
2023-03-27T04:03:33.271Z,9.747462
2023-03-27T04:04:34.018Z,9.747506
2023-03-27T04:05:34.248Z,9.747414
2023-03-27T04:06:33.217Z,9.747565
2023-03-27T04:07:33.240Z,9.747404
2023-03-27T04:08:33.197Z,9.747517
2023-03-27T04:09:33.192Z,9.747392
2023-03-27T04:10:33.189Z,9.747288
2023-03-27T04:11:33.178Z,9.747328
2023-03-27T04:12:33.196Z,9.747316
2023-03-27T04:13:33.170Z,9.747323
2023-03-27T04:14:33.166Z,9.747346
2023-03-27T04:15:33.157Z,9.747273
2023-03-27T04:16:33.185Z,9.747425
2023-03-27T04:17:33.265Z,9.747403
2023-03-27T04:18:33.324Z,9.747321
2023-03-27T04:19:33.129Z,9.747425
2023-03-27T04:20:33.129Z,9.747479
2023-03-27T04:21:33.100Z,9.747414
2023-03-27T04:22:33.146Z,9.747437
2023-03-27T04:23:33.101Z,9.747313
2023-03-27T04:24:33.083Z,9.747265
2023-03-27T04:25:33.093Z,9.747396
2023-03-27T04:26:33.072Z,9.747306
2023-03-27T04:27:33.087Z,9.747381
2023-03-27T04:28:33.051Z,9.747404
2023-03-27T04:29:33.044Z,9.747454
2023-03-27T04:30:33.116Z,9.747473
2023-03-27T04:31:33.066Z,9.747790
2023-03-27T04:32:33.096Z,9.747441
2023-03-27T04:33:33.016Z,9.747296
2023-03-27T04:34:34.003Z,9.747343
2023-03-27T04:35:33.108Z,9.747337
2023-03-27T04:36:33.058Z,9.747229
2023-03-27T04:37:33.017Z,9.747206
2023-03-27T04:38:32.987Z,9.747303
2023-03-27T04:39:32.974Z,9.747372
2023-03-27T04:40:32.984Z,9.747409
2023-03-27T04:41:32.970Z,9.747190
2023-03-27T04:42:32.982Z,9.747285
2023-03-27T04:43:32.953Z,9.747223
2023-03-27T04:44:32.932Z,9.747454
2023-03-27T04:45:32.938Z,9.747501
2023-03-27T04:46:32.937Z,9.747425
2023-03-27T04:47:32.985Z,9.747280
2023-03-27T04:48:32.910Z,9.747338
2023-03-27T04:49:32.891Z,9.747147
2023-03-27T04:50:32.895Z,9.747117
2023-03-27T04:51:32.877Z,9.747443
2023-03-27T04:52:32.873Z,9.747348
2023-03-27T04:53:32.895Z,9.747514
2023-03-27T04:54:32.862Z,9.747293
2023-03-27T04:55:32.925Z,9.747080
2023-03-27T04:56:32.884Z,9.747322
2023-03-27T04:57:33.529Z,9.747607
2023-03-27T04:58:33.715Z,9.747379
2023-03-27T04:59:32.821Z,9.747320
2023-03-27T05:00:32.819Z,9.747483
2023-03-27T05:01:32.833Z,9.747275
2023-03-27T05:02:32.822Z,9.747167
2023-03-27T05:03:32.857Z,9.746823
2023-03-27T05:04:32.804Z,9.747052
2023-03-27T05:05:32.771Z,9.747416
2023-03-27T05:06:32.775Z,9.747426
2023-03-27T05:07:32.770Z,9.747501
2023-03-27T05:08:32.831Z,9.747481
2023-03-27T05:09:32.748Z,9.747368
2023-03-27T05:10:32.742Z,9.747393
2023-03-27T05:11:32.725Z,9.747347
2023-03-27T05:12:32.719Z,9.747746
2023-03-27T05:13:32.738Z,9.747671
2023-03-27T05:14:32.707Z,9.747630
2023-03-27T05:15:32.700Z,9.747430
2023-03-27T05:16:32.719Z,9.747239
2023-03-27T05:17:32.721Z,9.747389
2023-03-27T05:18:32.695Z,9.747479
2023-03-27T05:19:32.662Z,9.747416
2023-03-27T05:20:32.661Z,9.747608
2023-03-27T05:21:32.658Z,9.747381
2023-03-27T05:22:32.645Z,9.747387
2023-03-27T05:23:32.654Z,9.747539
2023-03-27T05:24:32.626Z,9.747589
2023-03-27T05:25:32.669Z,9.747821
2023-03-27T05:26:32.609Z,9.747619
2023-03-27T05:27:32.605Z,9.747223
2023-03-27T05:28:32.619Z,9.747170
2023-03-27T05:29:46.432Z,9.747515
2023-03-27T05:30:33.599Z,9.747610
2023-03-27T05:31:32.611Z,9.747688
2023-03-27T05:32:32.577Z,9.747159
2023-03-27T05:33:32.608Z,9.747378
2023-03-27T05:34:32.567Z,9.747375
2023-03-27T05:35:32.575Z,9.747113
2023-03-27T05:36:32.551Z,9.747108
2023-03-27T05:37:32.629Z,9.747158
2023-03-27T05:38:32.544Z,9.747219
2023-03-27T05:39:32.517Z,9.747081
2023-03-27T05:40:32.510Z,9.747555
2023-03-27T05:41:32.496Z,9.747396
2023-03-27T05:42:32.508Z,9.747454
2023-03-27T05:43:32.514Z,9.747482
2023-03-27T05:44:32.484Z,9.747472
2023-03-27T05:45:32.476Z,9.747539
2023-03-27T05:46:32.520Z,9.747557
2023-03-27T05:47:32.480Z,9.747558
2023-03-27T05:48:32.524Z,9.747523
2023-03-27T05:49:34.104Z,9.747509
2023-03-27T05:50:33.462Z,9.747466
2023-03-27T05:51:32.433Z,9.747471
2023-03-27T05:52:32.413Z,9.747506
2023-03-27T05:53:32.425Z,9.747462
2023-03-27T05:54:32.398Z,9.747650
2023-03-27T05:55:32.425Z,9.747654
2023-03-27T05:56:32.454Z,9.747502
2023-03-27T05:57:32.366Z,9.747450
2023-03-27T05:58:32.395Z,9.747394
2023-03-27T05:59:32.367Z,9.747506
2023-03-27T06:00:32.347Z,9.747452
2023-03-27T06:01:32.347Z,9.747526
2023-03-27T06:02:32.440Z,9.747504
2023-03-27T06:03:32.497Z,9.747397
2023-03-27T06:04:32.378Z,9.747489
2023-03-27T06:05:32.313Z,9.747472
2023-03-27T06:06:33.224Z,9.747559
2023-03-27T06:07:32.298Z,9.747551
2023-03-27T06:08:32.337Z,9.747513
2023-03-27T06:09:32.322Z,9.747359
2023-03-27T06:10:32.275Z,9.747362
2023-03-27T06:11:32.282Z,9.747375
2023-03-27T06:12:32.256Z,9.747439
2023-03-27T06:13:32.246Z,9.747355
2023-03-27T06:14:32.281Z,9.747315
2023-03-27T06:15:32.243Z,9.747302
2023-03-27T06:16:33.468Z,9.747334
2023-03-27T06:17:32.289Z,9.747029
2023-03-27T06:18:32.215Z,9.747009
2023-03-27T06:19:32.336Z,9.747019
2023-03-27T06:20:32.193Z,9.747348
2023-03-27T06:21:32.186Z,9.747418
2023-03-27T06:22:32.191Z,9.747277
2023-03-27T06:23:32.167Z,9.747086
2023-03-27T06:24:32.197Z,9.747281
2023-03-27T06:25:32.173Z,9.747258
2023-03-27T06:26:32.156Z,9.747190
2023-03-27T06:27:32.162Z,9.747375
2023-03-27T06:28:32.130Z,9.747676
2023-03-27T06:29:32.156Z,9.747670
2023-03-27T06:30:32.120Z,9.747514
2023-03-27T06:31:32.134Z,9.747360
2023-03-27T06:32:32.166Z,9.747319
2023-03-27T06:33:32.104Z,9.747364
2023-03-27T06:34:32.123Z,9.747358
2023-03-27T06:35:32.115Z,9.747345
2023-03-27T06:36:32.090Z,9.747197
2023-03-27T06:37:32.080Z,9.747220
2023-03-27T06:38:32.063Z,9.747315
2023-03-27T06:39:32.082Z,9.747416
2023-03-27T06:40:33.054Z,9.747473
2023-03-27T06:41:32.041Z,9.747292
2023-03-27T06:42:32.037Z,9.747270
2023-03-27T06:43:32.030Z,9.747249
2023-03-27T06:44:32.055Z,9.747155
2023-03-27T06:45:32.077Z,9.747283
2023-03-27T06:46:42.593Z,9.747284
2023-03-27T06:47:38.717Z,9.747375
2023-03-27T06:48:34.034Z,9.747460
2023-03-27T06:49:32.021Z,9.747351
2023-03-27T06:50:31.981Z,9.747225
2023-03-27T06:51:31.975Z,9.747223
2023-03-27T06:52:31.968Z,9.747281
2023-03-27T06:53:35.514Z,9.747355
2023-03-27T06:54:33.985Z,9.747625
2023-03-27T06:55:31.956Z,9.747269
2023-03-27T06:56:31.936Z,9.747161
2023-03-27T06:57:31.933Z,9.747071
2023-03-27T06:58:31.935Z,9.747125
2023-03-27T06:59:31.950Z,9.747227
2023-03-27T07:00:31.909Z,9.747306
2023-03-27T07:01:31.936Z,9.747287
2023-03-27T07:02:31.936Z,9.747276
2023-03-27T07:03:31.893Z,9.747211
2023-03-27T07:04:31.983Z,9.747227
2023-03-27T07:05:31.929Z,9.747209
2023-03-27T07:06:31.869Z,9.747363
2023-03-27T07:07:31.883Z,9.747392
2023-03-27T07:08:31.853Z,9.747403
2023-03-27T07:09:31.857Z,9.747478
2023-03-27T07:10:31.846Z,9.747391
2023-03-27T07:11:32.197Z,9.747463
2023-03-27T07:12:32.816Z,9.747455
2023-03-27T07:13:31.803Z,9.747493
2023-03-27T07:14:31.838Z,9.747512
2023-03-27T07:15:31.799Z,9.747476
2023-03-27T07:16:31.875Z,9.747519
2023-03-27T07:17:42.085Z,9.747464
2023-03-27T07:18:33.837Z,9.747453
2023-03-27T07:19:31.810Z,9.747458
2023-03-27T07:20:31.759Z,9.747466
2023-03-27T07:21:31.771Z,9.747456
2023-03-27T07:22:31.744Z,9.747446
2023-03-27T07:23:31.735Z,9.747485
2023-03-27T07:24:31.747Z,9.747443
2023-03-27T07:25:31.731Z,9.747493
2023-03-27T07:26:31.717Z,9.747553
2023-03-27T07:27:31.696Z,9.747459
2023-03-27T07:28:31.696Z,9.747425
2023-03-27T07:29:31.720Z,9.747413
2023-03-27T07:30:31.680Z,9.747342
2023-03-27T07:31:51.082Z,9.747294
2023-03-27T07:32:37.086Z,9.747355
2023-03-27T07:33:32.691Z,9.747372
2023-03-27T07:34:31.672Z,9.747406
2023-03-27T07:35:31.642Z,9.747382
2023-03-27T07:36:31.632Z,9.747356
2023-03-27T07:37:31.631Z,9.747422
2023-03-27T07:38:31.626Z,9.747359
2023-03-27T07:39:31.641Z,9.747386
2023-03-27T07:40:39.422Z,9.747526
2023-03-27T07:41:33.611Z,9.747556
2023-03-27T07:42:31.617Z,9.747414
2023-03-27T07:43:31.587Z,9.747458
2023-03-27T07:44:31.618Z,9.747567
2023-03-27T07:45:31.600Z,9.747508
2023-03-27T07:46:31.557Z,9.747543
2023-03-27T07:47:31.588Z,9.747538
2023-03-27T07:48:31.544Z,9.747396
2023-03-27T07:49:39.189Z,9.747416
2023-03-27T07:50:32.552Z,9.747452
2023-03-27T07:51:31.530Z,9.747602
2023-03-27T07:52:31.524Z,9.747472
2023-03-27T07:53:33.450Z,9.747429
2023-03-27T07:54:31.535Z,9.747492
2023-03-27T07:55:31.498Z,9.747493
2023-03-27T07:56:31.504Z,9.747330
2023-03-27T07:57:33.174Z,9.747495
2023-03-27T07:58:33.473Z,9.747490
2023-03-27T07:59:31.468Z,9.747432
2023-03-27T08:00:31.659Z,9.747463
2023-03-27T08:01:31.447Z,9.747495
2023-03-27T08:02:31.487Z,9.747469
2023-03-27T08:03:31.813Z,9.747491
2023-03-27T08:04:31.654Z,9.747340
2023-03-27T08:05:31.452Z,9.747396
2023-03-27T08:06:31.417Z,9.747486
2023-03-27T08:07:31.414Z,9.747494
2023-03-27T08:08:31.391Z,9.747446
2023-03-27T08:09:31.402Z,9.747474
2023-03-27T08:10:31.637Z,9.747465
2023-03-27T08:11:31.424Z,9.747484
2023-03-27T08:12:31.362Z,9.747458
2023-03-27T08:13:31.381Z,9.747466
2023-03-27T08:14:31.341Z,9.747430
2023-03-27T08:15:31.378Z,9.747424
2023-03-27T08:16:31.357Z,9.747392
2023-03-27T08:17:31.433Z,9.747406
2023-03-27T08:18:31.316Z,9.747415
2023-03-27T08:19:31.303Z,9.747459
2023-03-27T08:20:31.318Z,9.747400
2023-03-27T08:21:31.296Z,9.747417
2023-03-27T08:22:31.283Z,9.747320
2023-03-27T08:23:31.291Z,9.747404
2023-03-27T08:24:31.275Z,9.747409
2023-03-27T08:25:31.290Z,9.747414
2023-03-27T08:26:31.247Z,9.747304
2023-03-27T08:27:31.265Z,9.747386
2023-03-27T08:28:31.261Z,9.747473
2023-03-27T08:29:31.230Z,9.747413
2023-03-27T08:30:31.296Z,9.747393
2023-03-27T08:31:31.280Z,9.747381
2023-03-27T08:32:31.239Z,9.747406
2023-03-27T08:33:31.251Z,9.747403
2023-03-27T08:34:31.209Z,9.747394
2023-03-27T08:35:31.236Z,9.747348
2023-03-27T08:36:31.202Z,9.747382
2023-03-27T08:37:31.167Z,9.747407
2023-03-27T08:38:31.169Z,9.747409
2023-03-27T08:39:31.155Z,9.747330
2023-03-27T08:40:31.194Z,9.747380
2023-03-27T08:41:31.146Z,9.747413
2023-03-27T08:42:31.127Z,9.747454
2023-03-27T08:43:31.141Z,9.747422
2023-03-27T08:44:31.157Z,9.747415
2023-03-27T08:45:31.142Z,9.747442
2023-03-27T08:46:31.144Z,9.747446
2023-03-27T08:47:31.103Z,9.747441
2023-03-27T08:48:31.099Z,9.747361
2023-03-27T08:49:31.079Z,9.747484
2023-03-27T08:50:31.093Z,9.747478
2023-03-27T08:51:31.056Z,9.747445
2023-03-27T08:52:31.062Z,9.747471
2023-03-27T08:53:31.059Z,9.747472
2023-03-27T08:54:31.049Z,9.747398
2023-03-27T08:55:31.080Z,9.747446
2023-03-27T08:56:31.037Z,9.747397
2023-03-27T08:57:31.024Z,9.747407
2023-03-27T08:58:31.029Z,9.747426
2023-03-27T08:59:31.003Z,9.747376
2023-03-27T09:00:31.028Z,9.747413
2023-03-27T09:01:31.089Z,9.747396
2023-03-27T09:02:31.068Z,9.747466
2023-03-27T09:03:31.110Z,9.747449
2023-03-27T09:04:30.964Z,9.747436
2023-03-27T09:05:30.993Z,9.747507
2023-03-27T09:06:30.968Z,9.747384
2023-03-27T09:07:30.941Z,9.747478
2023-03-27T09:08:30.934Z,9.747507
2023-03-27T09:09:31.096Z,9.747414
2023-03-27T09:10:30.949Z,9.747396
2023-03-27T09:11:30.915Z,9.747397
2023-03-27T09:12:30.913Z,9.747436
2023-03-27T09:13:30.903Z,9.747353
2023-03-27T09:14:30.895Z,9.747272
2023-03-27T09:15:31.242Z,9.747436
2023-03-27T09:16:30.923Z,9.747386
2023-03-27T09:17:30.926Z,9.747614
2023-03-27T09:18:30.883Z,9.747663
2023-03-27T09:19:30.853Z,9.747609
2023-03-27T09:20:31.217Z,9.747487
2023-03-27T09:21:30.837Z,9.747416
2023-03-27T09:22:30.829Z,9.747520
2023-03-27T09:23:30.830Z,9.747486
2023-03-27T09:24:30.828Z,9.747533
2023-03-27T09:25:30.828Z,9.747495
2023-03-27T09:26:30.802Z,9.747480
2023-03-27T09:27:30.790Z,9.747519
2023-03-27T09:28:30.799Z,9.747614
2023-03-27T09:29:30.784Z,9.747726
2023-03-27T09:30:30.819Z,9.747742
2023-03-27T09:31:30.805Z,9.747626
2023-03-27T09:32:33.549Z,9.747591
2023-03-27T09:33:30.761Z,9.747574
2023-03-27T09:34:30.754Z,9.747540
2023-03-27T09:35:30.785Z,9.747503
2023-03-27T09:36:30.772Z,9.747517
2023-03-27T09:37:30.720Z,9.747514
2023-03-27T09:38:30.716Z,9.747751
2023-03-27T09:39:30.724Z,9.747546
2023-03-27T09:40:30.713Z,9.747618
2023-03-27T09:41:30.719Z,9.747566
2023-03-27T09:42:30.709Z,9.747312
2023-03-27T09:43:30.686Z,9.747552
2023-03-27T09:44:30.722Z,9.747539
2023-03-27T09:45:30.673Z,9.747494
2023-03-27T09:46:30.709Z,9.747392
2023-03-27T09:47:30.731Z,9.747253
2023-03-27T09:48:30.631Z,9.747219
2023-03-27T09:49:30.638Z,9.747499
2023-03-27T09:50:30.628Z,9.747525
2023-03-27T09:51:30.682Z,9.747544
2023-03-27T09:52:30.607Z,9.747637
2023-03-27T09:53:30.616Z,9.747727
2023-03-27T09:54:30.609Z,9.747733
2023-03-27T09:55:30.611Z,9.747808
2023-03-27T09:56:30.599Z,9.747852
2023-03-27T09:57:30.568Z,9.747822
2023-03-27T09:58:30.622Z,9.747681
2023-03-27T09:59:30.561Z,9.747712
2023-03-27T10:00:30.608Z,9.747630
2023-03-27T10:01:30.647Z,9.747800
2023-03-27T10:02:30.561Z,9.747890
2023-03-27T10:03:31.571Z,9.747566
2023-03-27T10:04:30.515Z,9.747567
2023-03-27T10:05:30.509Z,9.747448
2023-03-27T10:06:30.548Z,9.747402
2023-03-27T10:07:30.516Z,9.747602
2023-03-27T10:08:30.493Z,9.747397
2023-03-27T10:09:30.481Z,9.747708
2023-03-27T10:10:30.478Z,9.747701
2023-03-27T10:11:30.521Z,9.747692
2023-03-27T10:12:30.488Z,9.747576
2023-03-27T10:13:30.476Z,9.747493
2023-03-27T10:14:30.445Z,9.747504
2023-03-27T10:15:31.171Z,9.747561
2023-03-27T10:16:30.478Z,9.747783
2023-03-27T10:17:30.497Z,9.747676
2023-03-27T10:18:30.488Z,9.747516
2023-03-27T10:19:30.425Z,9.747192
2023-03-27T10:20:30.421Z,9.747160
2023-03-27T10:21:30.435Z,9.747545
2023-03-27T10:22:30.468Z,9.747574
2023-03-27T10:23:30.467Z,9.747583
2023-03-27T10:24:30.369Z,9.747490
2023-03-27T10:25:30.379Z,9.747556
2023-03-27T10:26:30.355Z,9.747705
2023-03-27T10:27:30.390Z,9.747592
2023-03-27T10:28:30.339Z,9.747562
2023-03-27T10:29:30.341Z,9.747548
2023-03-27T10:30:30.317Z,9.747568
2023-03-27T10:31:30.375Z,9.747551
2023-03-27T10:32:30.358Z,9.747483
2023-03-27T10:33:30.311Z,9.747475
2023-03-27T10:34:30.294Z,9.747707
2023-03-27T10:35:30.355Z,9.747500
2023-03-27T10:36:30.327Z,9.747331
2023-03-27T10:37:30.286Z,9.747501
2023-03-27T10:38:30.254Z,9.747545
2023-03-27T10:39:30.328Z,9.747338
2023-03-27T10:40:30.241Z,9.747395
2023-03-27T10:41:30.238Z,9.747212
2023-03-27T10:42:30.255Z,9.747463
2023-03-27T10:43:30.236Z,9.747554
2023-03-27T10:44:30.246Z,9.747838
2023-03-27T10:45:30.204Z,9.747508
2023-03-27T10:46:30.267Z,9.747603
2023-03-27T10:47:30.226Z,9.747592
2023-03-27T10:48:30.190Z,9.747490
2023-03-27T10:49:30.179Z,9.747456
2023-03-27T10:50:30.190Z,9.747606
2023-03-27T10:51:39.526Z,9.747604
2023-03-27T10:52:32.176Z,9.747428
2023-03-27T10:53:30.208Z,9.747655
2023-03-27T10:54:31.812Z,9.747511
2023-03-27T10:55:31.241Z,9.747521
2023-03-27T10:56:30.115Z,9.747427
2023-03-27T10:57:30.149Z,9.747533
2023-03-27T10:58:31.114Z,9.747539
2023-03-27T10:59:41.174Z,9.747548
2023-03-27T11:00:32.090Z,9.747591
2023-03-27T11:01:30.088Z,9.747600
2023-03-27T11:02:30.106Z,9.747591
2023-03-27T11:03:30.097Z,9.747545
2023-03-27T11:04:30.056Z,9.747619
2023-03-27T11:05:30.083Z,9.747616
2023-03-27T11:06:30.047Z,9.747642
2023-03-27T11:07:30.062Z,9.747566
2023-03-27T11:08:30.041Z,9.747623
2023-03-27T11:09:30.031Z,9.747525
2023-03-27T11:10:30.009Z,9.747540
2023-03-27T11:11:30.014Z,9.747709
2023-03-27T11:12:30.084Z,9.747552
2023-03-27T11:13:29.986Z,9.747509
2023-03-27T11:14:29.989Z,9.747481
2023-03-27T11:15:29.965Z,9.747569
2023-03-27T11:16:30.993Z,9.747599
2023-03-27T11:17:30.063Z,9.747651
2023-03-27T11:18:29.953Z,9.747514
2023-03-27T11:19:29.955Z,9.747638
2023-03-27T11:20:29.947Z,9.747723
2023-03-27T11:21:29.929Z,9.747700
2023-03-27T11:22:29.984Z,9.747766
2023-03-27T11:23:30.910Z,9.747618
2023-03-27T11:24:29.946Z,9.747535
2023-03-27T11:25:29.908Z,9.747653
2023-03-27T11:26:29.887Z,9.747652
2023-03-27T11:27:30.086Z,9.747692
2023-03-27T11:28:29.906Z,9.747552
2023-03-27T11:29:29.864Z,9.747572
2023-03-27T11:30:29.866Z,9.747643
2023-03-27T11:31:29.896Z,9.747582
2023-03-27T11:32:29.888Z,9.747663
2023-03-27T11:33:29.909Z,9.747554
2023-03-27T11:34:29.878Z,9.747503
2023-03-27T11:35:29.887Z,9.747569
2023-03-27T11:36:29.993Z,9.747578
2023-03-27T11:37:29.809Z,9.747532
2023-03-27T11:38:29.823Z,9.747553
2023-03-27T11:39:29.791Z,9.747527
2023-03-27T11:40:29.794Z,9.747548
2023-03-27T11:41:29.780Z,9.747477
2023-03-27T11:42:29.768Z,9.747510
2023-03-27T11:43:29.928Z,9.747541
2023-03-27T11:44:29.764Z,9.747491